Time;durP1;ratioP1;P1;durP2;ratioP2;P2;SDS_P1;SDS_P2;PMS_P1;PMS_P2;Temp;Humidity;BMP_temperature;BMP_pressure;BME280_temperature;BME280_humidity;BME280_pressure;Samples;Min_cycle;Max_cycle;Signal;HPM_P1;HPM_P2
2023/06/24 00:00:14;;;;;;;6.40;5.50;;;;;;;;;;107252;1250;61337;-82
2023/06/24 00:03:02;;;;;;;7.40;5.80;;;;;;;;;;107106;1250;61142;-81
2023/06/24 00:05:29;;;;;;;7.30;6.10;;;;;;;;;;107350;1251;61955;-82
2023/06/24 00:07:56;;;;;;;9.00;6.00;;;;;;;;;;107064;1250;61212;-82
2023/06/24 00:10:23;;;;;;;8.30;6.10;;;;;;;;;;107052;1251;61365;-81
2023/06/24 00:12:49;;;;;;;7.10;6.00;;;;;;;;;;107093;1253;61197;-83
2023/06/24 00:15:16;;;;;;;9.40;5.70;;;;;;;;;;107118;1252;61276;-81
2023/06/24 00:17:42;;;;;;;11.00;6.30;;;;;;;;;;107147;1255;61335;-82
2023/06/24 00:20:10;;;;;;;9.70;6.00;;;;;;;;;;107218;1250;61354;-82
2023/06/24 00:22:43;;;;;;;8.90;6.10;;;;;;;;;;107057;1253;61177;-82
2023/06/24 00:25:10;;;;;;;10.60;6.00;;;;;;;;;;107168;1253;61037;-82
2023/06/24 00:27:36;;;;;;;7.20;5.60;;;;;;;;;;107095;1253;61369;-82
2023/06/24 00:30:03;;;;;;;7.10;6.10;;;;;;;;;;107042;1251;61193;-81
2023/06/24 00:32:29;;;;;;;8.50;6.40;;;;;;;;;;107132;1253;61235;-81
2023/06/24 00:34:57;;;;;;;9.10;6.50;;;;;;;;;;107060;1253;60728;-81
2023/06/24 00:37:24;;;;;;;12.50;6.90;;;;;;;;;;107077;1253;61463;-81
2023/06/24 00:39:50;;;;;;;10.70;7.00;;;;;;;;;;107077;1252;61140;-81
2023/06/24 00:42:17;;;;;;;11.50;7.50;;;;;;;;;;107125;1253;61282;-81
2023/06/24 00:44:43;;;;;;;8.30;6.60;;;;;;;;;;107082;1253;61250;-81
2023/06/24 00:47:09;;;;;;;14.70;6.50;;;;;;;;;;107267;1255;62420;-82
2023/06/24 00:49:36;;;;;;;7.70;6.30;;;;;;;;;;107066;1250;61364;-81
2023/06/24 00:52:03;;;;;;;9.00;7.20;;;;;;;;;;107097;1256;61604;-81
2023/06/24 00:54:31;;;;;;;8.20;6.30;;;;;;;;;;107087;1253;62321;-81
2023/06/24 00:57:00;;;;;;;7.10;6.40;;;;;;;;;;107125;1255;61234;-81
2023/06/24 00:59:28;;;;;;;;;;;;;;;;;;107125;1253;61218;-82
2023/06/24 01:01:55;;;;;;;10.60;7.00;;;;;;;;;;107062;1255;63272;-81
2023/06/24 01:04:21;;;;;;;8.50;7.60;;;;;;;;;;107093;1255;61219;-82
2023/06/24 01:06:48;;;;;;;8.70;7.70;;;;;;;;;;107123;1251;61313;-81
2023/06/24 01:09:15;;;;;;;8.20;7.30;;;;;;;;;;107110;1251;61326;-81
2023/06/24 01:11:41;;;;;;;13.70;8.10;;;;;;;;;;107122;1251;61226;-82
2023/06/24 01:14:08;;;;;;;11.70;7.00;;;;;;;;;;107090;1251;62341;-82
2023/06/24 01:16:40;;;;;;;8.90;6.50;;;;;;;;;;107097;1255;61198;-81
2023/06/24 01:19:27;;;;;;;7.40;6.60;;;;;;;;;;107107;1251;62791;-81
2023/06/24 01:22:11;;;;;;;9.30;6.80;;;;;;;;;;107057;1253;61116;-81
2023/06/24 01:24:56;;;;;;;10.90;6.90;;;;;;;;;;107074;1250;61410;-82
2023/06/24 01:27:29;;;;;;;6.90;6.20;;;;;;;;;;107089;1251;61157;-81
2023/06/24 01:29:56;;;;;;;11.20;5.80;;;;;;;;;;107080;1254;61237;-81
2023/06/24 01:32:24;;;;;;;10.70;6.60;;;;;;;;;;107070;1253;61242;-81
2023/06/24 01:35:00;;;;;;;8.50;6.70;;;;;;;;;;107019;1251;61319;-81
2023/06/24 01:37:28;;;;;;;9.80;6.40;;;;;;;;;;107048;1251;61267;-82
2023/06/24 01:39:57;;;;;;;7.30;6.60;;;;;;;;;;107013;1253;61324;-81
2023/06/24 01:42:23;;;;;;;12.60;6.40;;;;;;;;;;107172;1253;61221;-81
2023/06/24 01:44:50;;;;;;;9.30;6.10;;;;;;;;;;107066;1252;61146;-81
2023/06/24 01:47:18;;;;;;;9.20;6.80;;;;;;;;;;107000;1251;61200;-81
2023/06/24 01:49:45;;;;;;;8.90;5.90;;;;;;;;;;107144;1255;61861;-81
2023/06/24 01:52:11;;;;;;;7.00;6.30;;;;;;;;;;107174;1251;61156;-81
2023/06/24 01:54:38;;;;;;;12.50;7.00;;;;;;;;;;107107;1251;61248;-82
2023/06/24 01:57:05;;;;;;;14.70;6.70;;;;;;;;;;107106;1251;62837;-82
2023/06/24 01:59:32;;;;;;;10.00;6.90;;;;;;;;;;107141;1255;61259;-81
2023/06/24 02:01:58;;;;;;;12.60;6.90;;;;;;;;;;107132;1255;61339;-82
2023/06/24 02:04:25;;;;;;;12.20;6.40;;;;;;;;;;107083;1253;61369;-81
2023/06/24 02:06:51;;;;;;;7.00;6.20;;;;;;;;;;107116;1251;62212;-81
2023/06/24 02:09:17;;;;;;;8.10;6.90;;;;;;;;;;107098;1255;61421;-81
2023/06/24 02:11:44;;;;;;;8.80;5.90;;;;;;;;;;107099;1253;61203;-82
2023/06/24 02:14:10;;;;;;;8.70;7.10;;;;;;;;;;107263;1253;61347;-82
2023/06/24 02:16:36;;;;;;;9.50;6.50;;;;;;;;;;107078;1255;61227;-83
2023/06/24 02:19:04;;;;;;;10.80;6.00;;;;;;;;;;107083;1254;59085;-81
2023/06/24 02:21:31;;;;;;;9.50;6.90;;;;;;;;;;107129;1253;62975;-81
2023/06/24 02:23:57;;;;;;;8.20;6.70;;;;;;;;;;107139;1253;61333;-81
2023/06/24 02:26:25;;;;;;;7.20;5.70;;;;;;;;;;107078;1253;61358;-82
2023/06/24 02:28:52;;;;;;;8.00;5.40;;;;;;;;;;107138;1253;61230;-81
2023/06/24 02:31:18;;;;;;;8.10;5.80;;;;;;;;;;107100;1251;61347;-82
2023/06/24 02:33:44;;;;;;;7.40;6.30;;;;;;;;;;107013;1251;61339;-81
2023/06/24 02:36:11;;;;;;;11.90;7.00;;;;;;;;;;106931;1253;61225;-81
2023/06/24 02:38:37;;;;;;;13.70;7.00;;;;;;;;;;107063;1251;61336;-81
2023/06/24 02:41:04;;;;;;;10.70;6.40;;;;;;;;;;108024;1251;61219;-82
2023/06/24 02:43:32;;;;;;;12.50;7.80;;;;;;;;;;109495;1251;58874;-82
2023/06/24 02:45:59;;;;;;;8.50;6.20;;;;;;;;;;107497;1253;62236;-82
2023/06/24 02:48:25;;;;;;;9.60;7.10;;;;;;;;;;107452;1255;61341;-81
2023/06/24 02:50:52;;;;;;;13.20;7.80;;;;;;;;;;107104;1254;61154;-81
2023/06/24 02:53:18;;;;;;;7.50;6.20;;;;;;;;;;107144;1253;61288;-81
2023/06/24 02:55:45;;;;;;;12.00;7.00;;;;;;;;;;107122;1253;61211;-82
2023/06/24 02:58:11;;;;;;;14.30;6.20;;;;;;;;;;107165;1253;61321;-80
2023/06/24 03:00:37;;;;;;;13.60;6.70;;;;;;;;;;107135;1253;61301;-82
2023/06/24 03:03:04;;;;;;;10.80;6.50;;;;;;;;;;107143;1251;61329;-81
2023/06/24 03:05:31;;;;;;;7.90;6.80;;;;;;;;;;107194;1251;61324;-81
2023/06/24 03:07:58;;;;;;;7.10;6.20;;;;;;;;;;107067;1253;61438;-81
2023/06/24 03:10:25;;;;;;;11.00;5.60;;;;;;;;;;107076;1256;61306;-82
2023/06/24 03:12:51;;;;;;;6.80;5.20;;;;;;;;;;107082;1254;61295;-81
2023/06/24 03:15:18;;;;;;;10.20;5.10;;;;;;;;;;107078;1251;61180;-81
2023/06/24 03:17:44;;;;;;;11.20;5.20;;;;;;;;;;107110;1253;61218;-81
2023/06/24 03:20:11;;;;;;;8.90;5.30;;;;;;;;;;107126;1251;61365;-81
2023/06/24 03:22:37;;;;;;;10.50;5.90;;;;;;;;;;107135;1251;61254;-81
2023/06/24 03:25:04;;;;;;;9.50;6.10;;;;;;;;;;107022;1253;61311;-82
2023/06/24 03:27:31;;;;;;;8.60;5.90;;;;;;;;;;107094;1253;60924;-81
2023/06/24 03:29:57;;;;;;;9.60;5.80;;;;;;;;;;107207;1251;61264;-82
2023/06/24 03:32:24;;;;;;;6.80;5.90;;;;;;;;;;107069;1251;61232;-81
2023/06/24 03:34:50;;;;;;;17.20;6.90;;;;;;;;;;107002;1255;61864;-80
2023/06/24 03:37:17;;;;;;;7.00;6.20;;;;;;;;;;107035;1251;61277;-81
2023/06/24 03:39:43;;;;;;;11.40;8.40;;;;;;;;;;106960;1253;61273;-82
2023/06/24 03:42:10;;;;;;;14.40;9.90;;;;;;;;;;106993;1255;61348;-81
2023/06/24 03:44:36;;;;;;;10.20;6.20;;;;;;;;;;107000;1252;61273;-81
2023/06/24 03:47:03;;;;;;;9.90;6.10;;;;;;;;;;107034;1251;61363;-81
2023/06/24 03:49:29;;;;;;;9.80;6.40;;;;;;;;;;106993;1255;61104;-80
2023/06/24 03:51:55;;;;;;;7.90;6.60;;;;;;;;;;107131;1255;61199;-81
2023/06/24 03:54:22;;;;;;;7.80;6.60;;;;;;;;;;107057;1251;61237;-82
2023/06/24 03:56:48;;;;;;;12.20;7.60;;;;;;;;;;107167;1251;63311;-81
2023/06/24 03:59:15;;;;;;;12.10;7.90;;;;;;;;;;107149;1255;61331;-82
2023/06/24 04:01:41;;;;;;;15.70;9.50;;;;;;;;;;107162;1255;61266;-81
2023/06/24 04:04:07;;;;;;;17.70;9.70;;;;;;;;;;107167;1253;61225;-82
2023/06/24 04:06:34;;;;;;;13.10;7.50;;;;;;;;;;107132;1253;61302;-80
2023/06/24 04:09:01;;;;;;;13.80;7.20;;;;;;;;;;107137;1253;61253;-80
2023/06/24 04:11:28;;;;;;;13.30;8.60;;;;;;;;;;107085;1253;61205;-81
2023/06/24 04:13:54;;;;;;;8.20;7.10;;;;;;;;;;107197;1254;61229;-80
2023/06/24 04:16:20;;;;;;;15.30;7.60;;;;;;;;;;107134;1253;59802;-81
2023/06/24 04:18:47;;;;;;;13.00;6.60;;;;;;;;;;107105;1253;61216;-81
2023/06/24 04:21:14;;;;;;;12.20;7.10;;;;;;;;;;107079;1251;61842;-81
2023/06/24 04:23:40;;;;;;;11.10;7.60;;;;;;;;;;107119;1253;61337;-81
2023/06/24 04:26:07;;;;;;;7.80;7.00;;;;;;;;;;107039;1250;61374;-81
2023/06/24 04:28:33;;;;;;;13.30;9.10;;;;;;;;;;107133;1254;61246;-81
2023/06/24 04:30:59;;;;;;;13.30;10.50;;;;;;;;;;107009;1254;61228;-82
2023/06/24 04:33:26;;;;;;;12.30;9.60;;;;;;;;;;107021;1252;61135;-81
2023/06/24 04:35:52;;;;;;;16.80;9.70;;;;;;;;;;107017;1251;61443;-82
2023/06/24 04:38:19;;;;;;;10.60;9.10;;;;;;;;;;107011;1251;61917;-81
2023/06/24 04:40:45;;;;;;;16.00;12.00;;;;;;;;;;106947;1255;61674;-82
2023/06/24 04:43:11;;;;;;;17.40;12.10;;;;;;;;;;107041;1251;61266;-81
2023/06/24 04:45:38;;;;;;;12.70;9.40;;;;;;;;;;107015;1253;61244;-81
2023/06/24 04:48:04;;;;;;;12.70;8.30;;;;;;;;;;107010;1256;61350;-81
2023/06/24 04:50:31;;;;;;;11.60;9.00;;;;;;;;;;107028;1250;61213;-81
2023/06/24 04:52:57;;;;;;;10.80;8.40;;;;;;;;;;107078;1255;61342;-81
2023/06/24 04:55:24;;;;;;;12.10;6.90;;;;;;;;;;107070;1256;61283;-81
2023/06/24 04:57:50;;;;;;;8.50;6.90;;;;;;;;;;107127;1255;61333;-81
2023/06/24 05:00:17;;;;;;;14.20;7.00;;;;;;;;;;107010;1253;61549;-81
2023/06/24 05:02:43;;;;;;;8.60;6.30;;;;;;;;;;107045;1255;61426;-81
2023/06/24 05:05:09;;;;;;;17.00;8.20;;;;;;;;;;107016;1254;61289;-81
2023/06/24 05:07:36;;;;;;;12.00;6.60;;;;;;;;;;107039;1263;61509;-81
2023/06/24 05:10:02;;;;;;;9.80;7.90;;;;;;;;;;107040;1251;61181;-81
2023/06/24 05:12:29;;;;;;;9.10;7.10;;;;;;;;;;107063;1251;61221;-81
2023/06/24 05:14:55;;;;;;;8.90;7.70;;;;;;;;;;107001;1254;61207;-81
2023/06/24 05:17:22;;;;;;;9.20;6.40;;;;;;;;;;107074;1251;61218;-81
2023/06/24 05:19:48;;;;;;;11.20;6.80;;;;;;;;;;107338;1253;61324;-81
2023/06/24 05:22:14;;;;;;;10.90;6.90;;;;;;;;;;107050;1251;62389;-81
2023/06/24 05:24:41;;;;;;;14.00;10.20;;;;;;;;;;107045;1251;61251;-81
2023/06/24 05:27:08;;;;;;;14.00;8.10;;;;;;;;;;107103;1254;61232;-81
2023/06/24 05:29:34;;;;;;;13.50;8.50;;;;;;;;;;107054;1254;61250;-81
2023/06/24 05:32:03;;;;;;;13.50;8.50;;;;;;;;;;106986;1251;61328;-81
2023/06/24 05:34:30;;;;;;;10.50;7.20;;;;;;;;;;106998;1251;61143;-81
2023/06/24 05:36:56;;;;;;;12.60;11.30;;;;;;;;;;106970;1255;61897;-81
2023/06/24 05:39:23;;;;;;;12.30;9.80;;;;;;;;;;106980;1257;61342;-81
2023/06/24 05:41:50;;;;;;;14.90;9.70;;;;;;;;;;106991;1252;61108;-81
2023/06/24 05:44:17;;;;;;;15.20;9.70;;;;;;;;;;106934;1256;61334;-81
2023/06/24 05:46:44;;;;;;;9.60;7.90;;;;;;;;;;106919;1257;61088;-81
2023/06/24 05:49:11;;;;;;;11.70;7.90;;;;;;;;;;107142;1251;62312;-81
2023/06/24 05:51:37;;;;;;;12.00;8.80;;;;;;;;;;107039;1251;62105;-81
2023/06/24 05:54:04;;;;;;;15.00;10.40;;;;;;;;;;107159;1262;61217;-81
2023/06/24 05:56:31;;;;;;;16.30;14.50;;;;;;;;;;107075;1256;61920;-81
2023/06/24 05:58:57;;;;;;;13.60;8.60;;;;;;;;;;107037;1251;61253;-81
2023/06/24 06:01:23;;;;;;;10.60;8.30;;;;;;;;;;107126;1257;61296;-81
2023/06/24 06:03:50;;;;;;;17.90;12.90;;;;;;;;;;107076;1251;61273;-81
2023/06/24 06:06:16;;;;;;;18.30;9.10;;;;;;;;;;107075;1256;60230;-81
2023/06/24 06:08:43;;;;;;;11.30;8.50;;;;;;;;;;107106;1250;61371;-81
2023/06/24 06:11:09;;;;;;;11.90;10.20;;;;;;;;;;107080;1256;61221;-81
2023/06/24 06:13:36;;;;;;;14.90;9.70;;;;;;;;;;107054;1251;61225;-81
2023/06/24 06:16:02;;;;;;;18.00;9.60;;;;;;;;;;107016;1255;62243;-82
2023/06/24 06:18:28;;;;;;;16.80;10.40;;;;;;;;;;107270;1256;59277;-82
2023/06/24 06:20:55;;;;;;;10.40;8.50;;;;;;;;;;107171;1251;61294;-82
2023/06/24 06:23:21;;;;;;;11.20;5.90;;;;;;;;;;107134;1256;61928;-81
2023/06/24 06:25:48;;;;;;;8.40;4.90;;;;;;;;;;107122;1256;61115;-82
2023/06/24 06:28:14;;;;;;;10.40;6.00;;;;;;;;;;107498;1250;61139;-82
2023/06/24 06:30:40;;;;;;;8.90;5.60;;;;;;;;;;107258;1251;62143;-82
2023/06/24 06:33:07;;;;;;;11.50;7.00;;;;;;;;;;107214;1251;61331;-81
2023/06/24 06:35:33;;;;;;;9.40;8.40;;;;;;;;;;107305;1254;61098;-81
2023/06/24 06:38:00;;;;;;;9.70;7.90;;;;;;;;;;107543;1252;59415;-81
2023/06/24 06:40:28;;;;;;;10.60;8.10;;;;;;;;;;107236;1251;61974;-81
2023/06/24 06:42:54;;;;;;;10.80;6.80;;;;;;;;;;107411;1251;59780;-81
2023/06/24 06:45:21;;;;;;;11.60;7.30;;;;;;;;;;107319;1251;59359;-82
2023/06/24 06:47:48;;;;;;;14.80;7.90;;;;;;;;;;107368;1251;61242;-81
2023/06/24 06:50:15;;;;;;;25.70;17.70;;;;;;;;;;107396;1251;61814;-81
2023/06/24 06:52:41;;;;;;;22.70;19.70;;;;;;;;;;107360;1254;61075;-82
2023/06/24 06:55:07;;;;;;;17.70;11.10;;;;;;;;;;107217;1251;61272;-82
2023/06/24 06:57:34;;;;;;;12.70;7.90;;;;;;;;;;107359;1251;61187;-80
2023/06/24 07:00:00;;;;;;;14.00;9.40;;;;;;;;;;107425;1254;61240;-81
2023/06/24 07:02:30;;;;;;;17.10;12.30;;;;;;;;;;107430;1251;61277;-81
2023/06/24 07:04:57;;;;;;;17.00;12.90;;;;;;;;;;107456;1254;61299;-81
2023/06/24 07:07:23;;;;;;;22.40;16.80;;;;;;;;;;109444;1254;100453;-81
2023/06/24 07:09:49;;;;;;;13.70;9.60;;;;;;;;;;108063;1251;61179;-81
2023/06/24 07:12:16;;;;;;;10.60;8.30;;;;;;;;;;107757;1254;61195;-81
2023/06/24 07:14:43;;;;;;;8.40;6.50;;;;;;;;;;108352;1249;58479;-82
2023/06/24 07:17:09;;;;;;;10.30;7.90;;;;;;;;;;108545;1251;22964;-81
2023/06/24 07:19:36;;;;;;;12.20;8.00;;;;;;;;;;110411;1251;22623;-81
2023/06/24 07:22:02;;;;;;;9.20;7.70;;;;;;;;;;108429;1251;26411;-81
2023/06/24 07:24:28;;;;;;;8.80;6.70;;;;;;;;;;108423;1251;24216;-81
2023/06/24 07:26:55;;;;;;;7.60;6.00;;;;;;;;;;108364;1251;22625;-80
2023/06/24 07:29:21;;;;;;;10.10;7.30;;;;;;;;;;108484;1251;23264;-80
2023/06/24 07:31:47;;;;;;;15.40;11.20;;;;;;;;;;108474;1251;58470;-81
2023/06/24 07:34:14;;;;;;;15.30;10.90;;;;;;;;;;108286;1251;23366;-81
2023/06/24 07:36:40;;;;;;;10.90;9.00;;;;;;;;;;108293;1251;22568;-80
2023/06/24 07:39:07;;;;;;;12.00;8.00;;;;;;;;;;108504;1251;25119;-81
2023/06/24 07:41:33;;;;;;;10.60;7.00;;;;;;;;;;108356;1251;24217;-80
2023/06/24 07:43:59;;;;;;;12.80;8.20;;;;;;;;;;108341;1251;24222;-81
2023/06/24 07:46:27;;;;;;;11.50;8.80;;;;;;;;;;108279;1251;22797;-81
2023/06/24 07:48:54;;;;;;;12.60;10.80;;;;;;;;;;108646;1251;22557;-80
2023/06/24 07:51:20;;;;;;;13.00;8.90;;;;;;;;;;108462;1252;22538;-82
2023/06/24 07:53:46;;;;;;;12.20;9.50;;;;;;;;;;108595;1251;22671;-81
2023/06/24 07:56:13;;;;;;;11.30;9.90;;;;;;;;;;108312;1254;25263;-81
2023/06/24 07:58:39;;;;;;;12.30;10.80;;;;;;;;;;108541;1251;23293;-81
2023/06/24 08:01:06;;;;;;;60.30;47.00;;;;;;;;;;108448;1251;22529;-81
2023/06/24 08:03:33;;;;;;;58.20;45.50;;;;;;;;;;108752;1251;26057;-81
2023/06/24 08:05:59;;;;;;;101.30;88.30;;;;;;;;;;108765;1251;23513;-81
2023/06/24 08:08:26;;;;;;;27.40;22.60;;;;;;;;;;108540;1251;25297;-81
2023/06/24 08:10:52;;;;;;;18.50;13.30;;;;;;;;;;108493;1251;25224;-81
2023/06/24 08:13:18;;;;;;;13.50;11.30;;;;;;;;;;108852;1251;22552;-81
2023/06/24 08:15:45;;;;;;;13.10;11.00;;;;;;;;;;108749;1251;22592;-81
2023/06/24 08:18:11;;;;;;;11.70;9.20;;;;;;;;;;108714;1251;22823;-81
2023/06/24 08:20:37;;;;;;;12.30;10.60;;;;;;;;;;108759;1251;22565;-81
2023/06/24 08:23:04;;;;;;;13.10;10.80;;;;;;;;;;108936;1253;22537;-81
2023/06/24 08:25:30;;;;;;;12.70;9.20;;;;;;;;;;108629;1251;22646;-81
2023/06/24 08:27:56;;;;;;;12.70;11.20;;;;;;;;;;108505;1251;26356;-80
2023/06/24 08:30:23;;;;;;;17.20;11.60;;;;;;;;;;108398;1251;24261;-81
2023/06/24 08:32:49;;;;;;;13.00;11.30;;;;;;;;;;108557;1251;23299;-81
2023/06/24 08:35:16;;;;;;;13.40;10.70;;;;;;;;;;108335;1254;23285;-81
2023/06/24 08:37:42;;;;;;;12.80;10.70;;;;;;;;;;108415;1251;22747;-81
2023/06/24 08:40:09;;;;;;;19.80;15.20;;;;;;;;;;108407;1251;22541;-81
2023/06/24 08:42:35;;;;;;;13.70;11.40;;;;;;;;;;108456;1251;22589;-81
2023/06/24 08:45:02;;;;;;;13.60;10.50;;;;;;;;;;108283;1251;45939;-81
2023/06/24 08:47:29;;;;;;;11.10;8.10;;;;;;;;;;108408;1251;22618;-82
2023/06/24 08:50:03;;;;;;;14.10;8.90;;;;;;;;;;108373;1251;58534;-81
2023/06/24 08:52:30;;;;;;;11.50;9.30;;;;;;;;;;108400;1251;25377;-81
2023/06/24 08:54:57;;;;;;;16.00;11.60;;;;;;;;;;108278;1251;23045;-81
2023/06/24 08:57:23;;;;;;;12.60;10.20;;;;;;;;;;108335;1251;23715;-81
2023/06/24 08:59:50;;;;;;;25.20;16.50;;;;;;;;;;108471;1251;23054;-81
2023/06/24 09:02:16;;;;;;;34.20;25.60;;;;;;;;;;108374;1249;24236;-81
2023/06/24 09:04:43;;;;;;;33.00;23.60;;;;;;;;;;108338;1251;22576;-81
2023/06/24 09:07:09;;;;;;;33.40;25.90;;;;;;;;;;108297;1251;25506;-81
2023/06/24 09:09:43;;;;;;;33.00;25.10;;;;;;;;;;108400;1251;25221;-81
2023/06/24 09:12:10;;;;;;;33.30;25.00;;;;;;;;;;108073;1251;61148;-81
2023/06/24 09:14:36;;;;;;;31.40;24.90;;;;;;;;;;108279;1251;22543;-81
2023/06/24 09:17:06;;;;;;;33.20;25.40;;;;;;;;;;108407;1250;22619;-81
2023/06/24 09:19:39;;;;;;;32.50;24.70;;;;;;;;;;108446;1251;22729;-82
2023/06/24 09:22:06;;;;;;;33.00;24.50;;;;;;;;;;108368;1251;24257;-81
2023/06/24 09:24:32;;;;;;;42.80;34.00;;;;;;;;;;108410;1251;22628;-80
2023/06/24 09:26:59;;;;;;;39.40;29.20;;;;;;;;;;108357;1254;22541;-81
2023/06/24 09:29:26;;;;;;;40.80;33.80;;;;;;;;;;108416;1251;23001;-81
2023/06/24 09:31:52;;;;;;;35.70;27.00;;;;;;;;;;108452;1250;27475;-80
2023/06/24 09:34:19;;;;;;;32.60;27.00;;;;;;;;;;108245;1250;25343;-81
2023/06/24 09:36:46;;;;;;;33.00;26.20;;;;;;;;;;108276;1251;24191;-81
2023/06/24 09:39:12;;;;;;;32.80;24.80;;;;;;;;;;108422;1251;22570;-80
2023/06/24 09:41:45;;;;;;;28.80;24.60;;;;;;;;;;108513;1251;23395;-81
2023/06/24 09:44:11;;;;;;;30.80;24.50;;;;;;;;;;108334;1251;23052;-80
2023/06/24 09:46:38;;;;;;;30.20;24.80;;;;;;;;;;108332;1251;24321;-81
2023/06/24 09:49:05;;;;;;;27.50;22.90;;;;;;;;;;108377;1250;22533;-81
2023/06/24 09:51:42;;;;;;;28.30;23.80;;;;;;;;;;108421;1251;22538;-81
2023/06/24 09:54:09;;;;;;;30.40;24.10;;;;;;;;;;108266;1251;25495;-80
2023/06/24 09:56:38;;;;;;;27.10;23.10;;;;;;;;;;108335;1251;22534;-80
2023/06/24 09:59:05;;;;;;;28.90;23.60;;;;;;;;;;108378;1251;25209;-80
2023/06/24 10:01:32;;;;;;;28.10;21.80;;;;;;;;;;108404;1251;22707;-81
2023/06/24 10:03:58;;;;;;;24.80;21.30;;;;;;;;;;108305;1251;24186;-80
2023/06/24 10:06:25;;;;;;;29.40;25.30;;;;;;;;;;108298;1251;22713;-80
2023/06/24 10:08:52;;;;;;;28.60;23.90;;;;;;;;;;108549;1251;22594;-81
2023/06/24 10:11:18;;;;;;;30.00;23.40;;;;;;;;;;108395;1251;22568;-81
2023/06/24 10:13:45;;;;;;;26.10;20.40;;;;;;;;;;108396;1250;22562;-81
2023/06/24 10:16:11;;;;;;;25.10;21.30;;;;;;;;;;108418;1251;22577;-81
2023/06/24 10:18:38;;;;;;;25.90;19.10;;;;;;;;;;108498;1251;24255;-81
2023/06/24 10:21:04;;;;;;;23.20;19.10;;;;;;;;;;108459;1251;22536;-80
2023/06/24 10:23:32;;;;;;;23.70;17.50;;;;;;;;;;108331;1251;22640;-81
2023/06/24 10:25:59;;;;;;;21.00;18.20;;;;;;;;;;108330;1251;22618;-80
2023/06/24 10:28:25;;;;;;;20.30;16.60;;;;;;;;;;108396;1251;22758;-80
2023/06/24 10:30:56;;;;;;;20.20;16.20;;;;;;;;;;108421;1250;22605;-81
2023/06/24 10:33:23;;;;;;;18.60;16.30;;;;;;;;;;109599;1250;24375;-81
2023/06/24 10:35:50;;;;;;;22.00;15.90;;;;;;;;;;108327;1251;22966;-80
2023/06/24 10:38:17;;;;;;;29.50;23.00;;;;;;;;;;108537;1251;23000;-80
2023/06/24 10:40:43;;;;;;;21.60;16.40;;;;;;;;;;108406;1251;22676;-80
2023/06/24 10:43:29;;;;;;;21.40;15.10;;;;;;;;;;108480;1250;22626;-81
2023/06/24 10:45:56;;;;;;;23.20;15.80;;;;;;;;;;108315;1251;25509;-80
2023/06/24 10:48:22;;;;;;;20.00;16.10;;;;;;;;;;108500;1250;22529;-80
2023/06/24 10:50:52;;;;;;;23.00;16.10;;;;;;;;;;109167;1266;22362;-81
2023/06/24 10:53:18;;;;;;;22.20;16.00;;;;;;;;;;110611;1251;22347;-81
2023/06/24 10:55:46;;;;;;;20.30;14.60;;;;;;;;;;110609;1251;22414;-81
2023/06/24 10:58:14;;;;;;;21.10;14.30;;;;;;;;;;108628;1251;22615;-81
2023/06/24 11:00:40;;;;;;;27.00;18.50;;;;;;;;;;108248;1251;23197;-81
2023/06/24 11:03:07;;;;;;;23.60;16.90;;;;;;;;;;108251;1251;24228;-80
2023/06/24 11:05:34;;;;;;;18.30;15.40;;;;;;;;;;108154;1251;22606;-80
2023/06/24 11:08:00;;;;;;;21.80;15.70;;;;;;;;;;108222;1251;25339;-80
2023/06/24 11:10:26;;;;;;;19.40;14.60;;;;;;;;;;108151;1251;25291;-80
2023/06/24 11:12:53;;;;;;;20.40;15.40;;;;;;;;;;108175;1251;24348;-80
2023/06/24 11:15:19;;;;;;;20.50;15.90;;;;;;;;;;108034;1254;22647;-80
2023/06/24 11:17:46;;;;;;;21.40;15.10;;;;;;;;;;107885;1251;22543;-80
2023/06/24 11:20:13;;;;;;;19.10;15.50;;;;;;;;;;107938;1254;22553;-80
2023/06/24 11:22:39;;;;;;;18.80;15.00;;;;;;;;;;107935;1251;25390;-80
2023/06/24 11:25:06;;;;;;;19.60;14.60;;;;;;;;;;108139;1251;22874;-80
2023/06/24 11:27:32;;;;;;;19.90;14.60;;;;;;;;;;108173;1251;23007;-80
2023/06/24 11:30:01;;;;;;;17.90;14.20;;;;;;;;;;107916;1250;22535;-80
2023/06/24 11:32:27;;;;;;;;;;;;;;;;;;107897;1251;22981;-81
2023/06/24 11:34:54;;;;;;;17.80;13.10;;;;;;;;;;107881;1251;22595;-80
2023/06/24 11:37:20;;;;;;;18.10;15.10;;;;;;;;;;107984;1251;22829;-81
2023/06/24 11:39:59;;;;;;;15.70;12.10;;;;;;;;;;107895;1251;22525;-80
2023/06/24 11:42:26;;;;;;;18.50;13.10;;;;;;;;;;107957;1254;25445;-81
2023/06/24 11:44:52;;;;;;;21.70;13.20;;;;;;;;;;107918;1251;22523;-81
2023/06/24 11:47:23;;;;;;;20.70;14.60;;;;;;;;;;107912;1252;25319;-80
2023/06/24 11:49:53;;;;;;;18.90;14.20;;;;;;;;;;107912;1251;22604;-81
2023/06/24 11:52:19;;;;;;;16.20;12.10;;;;;;;;;;107921;1251;24387;-80
2023/06/24 11:54:46;;;;;;;231.90;43.20;;;;;;;;;;107874;1253;26115;-81
2023/06/24 11:57:13;;;;;;;55.30;18.30;;;;;;;;;;107960;1251;22573;-80
2023/06/24 11:59:39;;;;;;;425.40;70.40;;;;;;;;;;107957;1251;25314;-80
2023/06/24 12:02:06;;;;;;;432.70;79.00;;;;;;;;;;107930;1251;24180;-81
2023/06/24 12:04:33;;;;;;;24.20;13.80;;;;;;;;;;108018;1252;22539;-81
2023/06/24 12:07:00;;;;;;;14.90;10.40;;;;;;;;;;107861;1251;36791;-81
2023/06/24 12:09:26;;;;;;;49.20;15.00;;;;;;;;;;107915;1251;25308;-81
2023/06/24 12:11:52;;;;;;;38.70;14.60;;;;;;;;;;107882;1251;22588;-81
2023/06/24 12:14:19;;;;;;;14.20;9.60;;;;;;;;;;108172;1251;23127;-82
2023/06/24 12:16:45;;;;;;;13.60;10.50;;;;;;;;;;107954;1251;24196;-81
2023/06/24 12:19:11;;;;;;;11.70;9.50;;;;;;;;;;108044;1251;24193;-81
2023/06/24 12:21:38;;;;;;;15.30;11.80;;;;;;;;;;107936;1251;22566;-81
2023/06/24 12:24:04;;;;;;;20.00;15.80;;;;;;;;;;107925;1251;22560;-81
2023/06/24 12:26:31;;;;;;;15.20;12.40;;;;;;;;;;107882;1251;26484;-81
2023/06/24 12:28:57;;;;;;;20.10;12.10;;;;;;;;;;107892;1252;22585;-81
2023/06/24 12:31:24;;;;;;;13.80;11.20;;;;;;;;;;107933;1251;23035;-81
2023/06/24 12:33:51;;;;;;;19.50;15.60;;;;;;;;;;107891;1251;23269;-81
2023/06/24 12:36:18;;;;;;;81.10;24.20;;;;;;;;;;107869;1250;22548;-81
2023/06/24 12:38:44;;;;;;;32.80;13.80;;;;;;;;;;107918;1251;22545;-81
2023/06/24 12:41:11;;;;;;;44.70;15.90;;;;;;;;;;107809;1250;25317;-81
2023/06/24 12:43:37;;;;;;;34.60;14.00;;;;;;;;;;107830;1251;22567;-82
2023/06/24 12:46:03;;;;;;;18.20;11.70;;;;;;;;;;107987;1251;25370;-81
2023/06/24 12:48:30;;;;;;;30.50;14.40;;;;;;;;;;107804;1252;23302;-81
2023/06/24 12:50:56;;;;;;;19.20;10.90;;;;;;;;;;107865;1251;23266;-81
2023/06/24 12:53:23;;;;;;;37.80;11.60;;;;;;;;;;108120;1251;23153;-81
2023/06/24 12:55:50;;;;;;;19.60;11.40;;;;;;;;;;107898;1251;24262;-82
2023/06/24 12:58:21;;;;;;;13.20;9.80;;;;;;;;;;107903;1251;25297;-81
2023/06/24 13:00:48;;;;;;;14.60;11.00;;;;;;;;;;107956;1253;25396;-81
2023/06/24 13:03:14;;;;;;;16.90;10.60;;;;;;;;;;107940;1251;22525;-81
2023/06/24 13:05:41;;;;;;;13.90;10.20;;;;;;;;;;108012;1250;25361;-81
2023/06/24 13:08:10;;;;;;;24.40;12.50;;;;;;;;;;108148;1251;25507;-81
2023/06/24 13:10:38;;;;;;;154.40;26.70;;;;;;;;;;107932;1251;26407;-81
2023/06/24 13:13:04;;;;;;;16.10;11.90;;;;;;;;;;108050;1255;25401;-81
2023/06/24 13:15:31;;;;;;;261.40;44.10;;;;;;;;;;107956;1251;25609;-81
2023/06/24 13:17:57;;;;;;;60.90;20.70;;;;;;;;;;107881;1251;22572;-82
2023/06/24 13:20:23;;;;;;;356.00;55.50;;;;;;;;;;107924;1251;22618;-81
2023/06/24 13:22:50;;;;;;;46.70;17.70;;;;;;;;;;107849;1250;24295;-81
2023/06/24 13:25:16;;;;;;;17.40;9.30;;;;;;;;;;107824;1251;22541;-81
2023/06/24 13:27:43;;;;;;;866.10;124.70;;;;;;;;;;108374;1251;22585;-81
2023/06/24 13:30:09;;;;;;;61.20;13.90;;;;;;;;;;108137;1254;22568;-81
2023/06/24 13:32:35;;;;;;;16.60;9.70;;;;;;;;;;108184;1254;22544;-81
2023/06/24 13:35:02;;;;;;;109.70;75.10;;;;;;;;;;108129;1251;22541;-82
2023/06/24 13:37:30;;;;;;;51.50;36.50;;;;;;;;;;108257;1251;22550;-81
2023/06/24 13:39:59;;;;;;;176.10;129.50;;;;;;;;;;108180;1251;22560;-81
2023/06/24 13:42:26;;;;;;;398.10;232.50;;;;;;;;;;108237;1251;24222;-82
2023/06/24 13:44:52;;;;;;;647.60;134.70;;;;;;;;;;108191;1251;22868;-81
2023/06/24 13:47:19;;;;;;;45.00;16.00;;;;;;;;;;108181;1251;24352;-81
2023/06/24 13:49:45;;;;;;;19.20;11.80;;;;;;;;;;108202;1254;22540;-81
2023/06/24 13:52:11;;;;;;;11.40;9.40;;;;;;;;;;108131;1251;25490;-81
2023/06/24 13:54:38;;;;;;;145.10;70.50;;;;;;;;;;108118;1251;24228;-81
2023/06/24 13:57:04;;;;;;;1655.10;646.60;;;;;;;;;;108271;1251;22598;-81
2023/06/24 13:59:31;;;;;;;212.90;129.20;;;;;;;;;;108093;1251;23242;-81
2023/06/24 14:01:57;;;;;;;70.40;46.00;;;;;;;;;;108112;1252;23408;-81
2023/06/24 14:04:23;;;;;;;39.20;22.00;;;;;;;;;;108161;1253;23246;-81
2023/06/24 14:06:50;;;;;;;30.00;20.70;;;;;;;;;;108297;1251;22522;-81
2023/06/24 14:09:16;;;;;;;17.40;11.40;;;;;;;;;;108193;1251;22537;-81
2023/06/24 14:11:43;;;;;;;36.70;30.90;;;;;;;;;;108118;1251;23715;-81